x

Louisiana Offshore Oil Port, La (lopl1) Wave Buoy

4:23pm - Wed 7th Dec 2016 All times are CST. -6 hours from GMT.

  • Sig Wave height 2.3ft
  • Wind
    14mph, 15mph gusts
  • Air Temp 68°f
  • Sea Pressure 1017.1mb
  • Louisiana Offshore Oil Port, La
  • Louisiana Offshore Oil Port, La

More Historic Weather Station data

Upgrade to MSW Pro to gain access to the past 30 days of data for over 8000 Wavebouys and Weather Stations around the globe.

Join Pro

Comparision Forecast

View Surf forecast
   
Wed 12/07 4:23pm 2.5ft 14 15 mph 1017.1mb 68f
3:13pm 2ft 14 15 mph 1017.1mb 68f
2:13pm 2ft 13 14 mph 1017.1mb 67f
1:13pm 2.5ft 10 14 mph 1017.1mb 66f
12:13pm 2.5ft 10 13 mph 1018.1mb 65f
11:13am 2.5ft 11 14 mph 1019.1mb 65f
10:13am 2.5ft 11 14 mph 1019.1mb 65f
9:08am 2.5ft 13 14 mph 1019.1mb 65f
8:08am 2.5ft 10 13 mph 1019.1mb 65f
7:08am 2.5ft 11 14 mph 1018.1mb 64f
6:08am 2.5ft 11 14 mph 1017.1mb 64f
5:08am 2.5ft 9 11 mph 1017.1mb 64f
4:08am 2.5ft 8 10 mph 1017.1mb 64f
3:08am 2.5ft 7 9 mph 1016.1mb 64f
2:08am 2.5ft 8 11 mph 1016.1mb 64f
1:08am 2.5ft 8 10 mph 1016.1mb 64f
12:08am 2.5ft 8 10 mph 1016.1mb 64f
Tue 12/06 11:08pm 2.5ft 8 11 mph 1016.1mb 64f
10:08pm 2.5ft 10 14 mph 1016.1mb 64f
9:08pm 2.5ft 6 9 mph 1016.1mb 65f
8:08pm 2.5ft 6 9 mph 1016.1mb 67f
6:08pm 3ft 6 8 mph 1015.1mb 66f
5:08pm 3.5ft 6 8 mph 1014.1mb 65f
4:08pm 3.5ft 7 11 mph 1014.1mb 65f
3:08pm 3.5ft 7 10 mph 1013.1mb 65f
2:03pm 3.5ft 8 14 mph 1013.1mb 65f
1:03pm 4ft 11 16 mph 1013.1mb 64f
12:03pm 4.5ft 14 21 mph 1013.1mb 63f
10:58am 4.5ft 10 17 mph 1014.1mb 63f
9:58am 5ft 13 20 mph 1014.1mb 62f
8:58am 5ft 13 21 mph 1013.1mb 62f
7:58am 5ft 15 22 mph 1012.1mb 63f
6:58am 6ft 13 24 mph 1011.1mb 64f
5:58am 6ft 18 32 mph 1010.1mb 67f
4:58am 6ft 28 34 mph 1009.1mb 68f
3:58am 6ft 28 36 mph 1008.1mb 69f
2:58am  -  24 30 mph 1008.1mb 69f
1:58am  -  29 36 mph 1007.1mb 70f
12:58am  -  25 34 mph 1006.1mb 70f
Mon 12/05 11:58pm  -  26 33 mph 1006.1mb 71f
10:58pm  -  18 28 mph 1006.1mb 74f
9:58pm  -  11 23 mph 1006.1mb 74f
8:58pm 6.5ft 10 24 mph 1005.1mb 72f
7:53pm 12ft 14 18 mph 1005.1mb 76f
6:53pm 4ft 14 16 mph 1005.1mb 76f
5:53pm 3.5ft 15 18 mph 1005.1mb 77f
4:53pm 3.5ft 15 18 mph 1005.1mb 76f
3:53pm 3.5ft 17 18 mph 1005.1mb 77f
2:53pm 4.5ft 22 23 mph 1005.1mb 77f
1:53pm 4ft 25 28 mph 1005.1mb 77f
12:53pm 6ft 20 23 mph 1006.1mb 77f
11:53am 8ft 21 29 mph 1007.1mb 77f
10:53am 10ft 24 37 mph 1008.1mb 75f
9:53am 5ft 20 22 mph 1008.1mb 76f
8:53am 3.5ft 14 15 mph 1009.1mb 75f
7:53am 3.5ft 14 15 mph 1010.1mb 75f
6:48am 4ft 15 17 mph 1010.1mb 74f
5:48am 4ft 17 20 mph 1010.1mb 74f
4:48am 4ft 22 23 mph 1010.1mb 74f
3:48am 4ft 22 24 mph 1010.1mb 73f
2:48am 4ft 26 29 mph 1010.1mb 73f
1:48am 3.5ft 26 29 mph 1010.1mb 70f
12:48am 3.5ft 25 28 mph 1011.1mb 70f
Sun 12/04 11:48pm 3.5ft 22 23 mph 1013.1mb 69f
10:48pm 4ft 22 26 mph 1014.1mb 69f
9:48pm 4.5ft 29 32 mph 1014.1mb 68f
8:48pm 4.5ft 25 32 mph 1014.1mb 67f
7:43pm 4.5ft 29 37 mph 1014.1mb 67f
6:43pm 7ft 28 36 mph 1013.1mb 67f
5:43pm 4ft 21 30 mph 1013.1mb 68f
4:43pm 3.5ft 17 20 mph 1012.1mb 77f
3:43pm 3.5ft 11 15 mph 1010.1mb 77f
2:43pm 4.5ft 11 16 mph 1010.1mb 76f
1:43pm 4ft 15 17 mph 1010.1mb 76f
12:43pm 4.5ft 21 23 mph 1011.1mb 76f
11:43am 4ft 22 25 mph 1011.1mb 77f
10:43am 4.5ft 14 20 mph 1012.1mb 77f
9:43am 4.5ft 14 20 mph 1013.1mb 77f
8:38am 5ft 14 20 mph 1013.1mb 76f
7:38am 4.5ft 15 21 mph 1012.1mb 76f
6:38am 5ft 15 21 mph 1012.1mb 76f
5:38am 5ft 18 25 mph 1012.1mb 76f
4:38am 4.5ft 16 28 mph 1011.1mb 74f
3:38am 5ft 18 29 mph 1011.1mb 76f
2:38am 5ft 22 29 mph 1011.1mb 76f
1:38am 5ft 26 31 mph 1012.1mb 76f
12:38am 5ft 25 29 mph 1012.1mb 75f
Sat 12/03 11:38pm 5ft 26 30 mph 1013.1mb 75f